sensor_id;sensor_type;location;lat;lon;timestamp;P1;durP1;ratioP1;P2;durP2;ratioP2
2896;SDS011;1458;49.728;9.228;2023-08-12T00:00:25;0.10;;;0.10;;
2896;SDS011;1458;49.728;9.228;2023-08-12T00:02:52;0.10;;;0.10;;
2896;SDS011;1458;49.728;9.228;2023-08-12T00:05:20;0.10;;;0.10;;
2896;SDS011;1458;49.728;9.228;2023-08-12T00:07:48;0.10;;;0.10;;
2896;SDS011;1458;49.728;9.228;2023-08-12T00:10:15;0.20;;;0.20;;
2896;SDS011;1458;49.728;9.228;2023-08-12T00:12:44;0.10;;;0.10;;
2896;SDS011;1458;49.728;9.228;2023-08-12T00:15:12;0.10;;;0.10;;
2896;SDS011;1458;49.728;9.228;2023-08-12T00:17:39;0.10;;;0.10;;
2896;SDS011;1458;49.728;9.228;2023-08-12T00:20:07;0.10;;;0.10;;
2896;SDS011;1458;49.728;9.228;2023-08-12T00:22:36;0.10;;;0.10;;
2896;SDS011;1458;49.728;9.228;2023-08-12T00:25:04;0.10;;;0.10;;
2896;SDS011;1458;49.728;9.228;2023-08-12T00:27:33;0.10;;;0.10;;
2896;SDS011;1458;49.728;9.228;2023-08-12T00:30:02;0.10;;;0.10;;
2896;SDS011;1458;49.728;9.228;2023-08-12T00:32:30;0.10;;;0.10;;
2896;SDS011;1458;49.728;9.228;2023-08-12T00:34:58;0.10;;;0.10;;
2896;SDS011;1458;49.728;9.228;2023-08-12T00:37:25;0.10;;;0.10;;
2896;SDS011;1458;49.728;9.228;2023-08-12T00:39:52;0.10;;;0.10;;
2896;SDS011;1458;49.728;9.228;2023-08-12T00:42:22;0.10;;;0.10;;
2896;SDS011;1458;49.728;9.228;2023-08-12T00:44:49;0.20;;;0.20;;
2896;SDS011;1458;49.728;9.228;2023-08-12T00:47:18;0.20;;;0.20;;
2896;SDS011;1458;49.728;9.228;2023-08-12T00:49:47;0.10;;;0.10;;
2896;SDS011;1458;49.728;9.228;2023-08-12T00:52:15;0.10;;;0.10;;
2896;SDS011;1458;49.728;9.228;2023-08-12T00:54:44;0.10;;;0.10;;
2896;SDS011;1458;49.728;9.228;2023-08-12T00:57:12;0.10;;;0.10;;
2896;SDS011;1458;49.728;9.228;2023-08-12T00:59:40;0.10;;;0.10;;
2896;SDS011;1458;49.728;9.228;2023-08-12T01:02:10;0.10;;;0.10;;
2896;SDS011;1458;49.728;9.228;2023-08-12T01:04:40;0.20;;;0.20;;
2896;SDS011;1458;49.728;9.228;2023-08-12T01:07:08;0.10;;;0.10;;
2896;SDS011;1458;49.728;9.228;2023-08-12T01:09:36;0.10;;;0.10;;
2896;SDS011;1458;49.728;9.228;2023-08-12T01:12:05;0.10;;;0.10;;
2896;SDS011;1458;49.728;9.228;2023-08-12T01:14:42;0.10;;;0.10;;
2896;SDS011;1458;49.728;9.228;2023-08-12T01:17:18;0.10;;;0.10;;
2896;SDS011;1458;49.728;9.228;2023-08-12T01:19:47;0.10;;;0.10;;
2896;SDS011;1458;49.728;9.228;2023-08-12T01:22:18;0.10;;;0.10;;
2896;SDS011;1458;49.728;9.228;2023-08-12T01:24:52;0.10;;;0.10;;
2896;SDS011;1458;49.728;9.228;2023-08-12T01:27:19;0.10;;;0.10;;
2896;SDS011;1458;49.728;9.228;2023-08-12T01:29:48;0.10;;;0.10;;
2896;SDS011;1458;49.728;9.228;2023-08-12T01:32:21;0.10;;;0.10;;
2896;SDS011;1458;49.728;9.228;2023-08-12T01:34:56;0.10;;;0.10;;
2896;SDS011;1458;49.728;9.228;2023-08-12T01:37:32;0.10;;;0.10;;
2896;SDS011;1458;49.728;9.228;2023-08-12T01:40:02;0.10;;;0.10;;
2896;SDS011;1458;49.728;9.228;2023-08-12T01:42:32;0.10;;;0.10;;
2896;SDS011;1458;49.728;9.228;2023-08-12T01:45:00;0.10;;;0.10;;
2896;SDS011;1458;49.728;9.228;2023-08-12T01:47:29;0.10;;;0.10;;
2896;SDS011;1458;49.728;9.228;2023-08-12T01:49:57;0.10;;;0.10;;
2896;SDS011;1458;49.728;9.228;2023-08-12T01:52:25;0.10;;;0.10;;
2896;SDS011;1458;49.728;9.228;2023-08-12T01:54:53;0.10;;;0.10;;
2896;SDS011;1458;49.728;9.228;2023-08-12T01:57:22;0.20;;;0.20;;
2896;SDS011;1458;49.728;9.228;2023-08-12T01:59:50;0.10;;;0.10;;
2896;SDS011;1458;49.728;9.228;2023-08-12T02:02:18;0.10;;;0.10;;
2896;SDS011;1458;49.728;9.228;2023-08-12T02:04:45;0.10;;;0.10;;
2896;SDS011;1458;49.728;9.228;2023-08-12T02:07:13;0.10;;;0.10;;
2896;SDS011;1458;49.728;9.228;2023-08-12T02:09:40;0.10;;;0.10;;
2896;SDS011;1458;49.728;9.228;2023-08-12T02:12:08;0.10;;;0.10;;
2896;SDS011;1458;49.728;9.228;2023-08-12T02:14:36;0.10;;;0.10;;
2896;SDS011;1458;49.728;9.228;2023-08-12T02:17:04;0.10;;;0.10;;
2896;SDS011;1458;49.728;9.228;2023-08-12T02:19:32;0.20;;;0.20;;
2896;SDS011;1458;49.728;9.228;2023-08-12T02:22:01;0.10;;;0.10;;
2896;SDS011;1458;49.728;9.228;2023-08-12T02:24:30;0.10;;;0.10;;
2896;SDS011;1458;49.728;9.228;2023-08-12T02:26:57;0.10;;;0.10;;
2896;SDS011;1458;49.728;9.228;2023-08-12T02:29:25;0.10;;;0.10;;
2896;SDS011;1458;49.728;9.228;2023-08-12T02:31:54;0.10;;;0.10;;
2896;SDS011;1458;49.728;9.228;2023-08-12T02:34:21;0.10;;;0.10;;
2896;SDS011;1458;49.728;9.228;2023-08-12T02:36:50;0.10;;;0.10;;
2896;SDS011;1458;49.728;9.228;2023-08-12T02:39:18;0.10;;;0.10;;
2896;SDS011;1458;49.728;9.228;2023-08-12T02:41:45;0.00;;;0.00;;
2896;SDS011;1458;49.728;9.228;2023-08-12T02:44:12;0.10;;;0.10;;
2896;SDS011;1458;49.728;9.228;2023-08-12T02:46:40;0.10;;;0.10;;
2896;SDS011;1458;49.728;9.228;2023-08-12T02:49:09;0.10;;;0.10;;
2896;SDS011;1458;49.728;9.228;2023-08-12T02:51:36;0.10;;;0.10;;
2896;SDS011;1458;49.728;9.228;2023-08-12T02:54:04;0.10;;;0.10;;
2896;SDS011;1458;49.728;9.228;2023-08-12T02:56:31;0.10;;;0.10;;
2896;SDS011;1458;49.728;9.228;2023-08-12T02:58:59;0.10;;;0.10;;
2896;SDS011;1458;49.728;9.228;2023-08-12T03:01:26;0.10;;;0.10;;
2896;SDS011;1458;49.728;9.228;2023-08-12T03:03:54;0.10;;;0.10;;
2896;SDS011;1458;49.728;9.228;2023-08-12T03:06:23;0.10;;;0.10;;
2896;SDS011;1458;49.728;9.228;2023-08-12T03:08:50;0.10;;;0.10;;
2896;SDS011;1458;49.728;9.228;2023-08-12T03:11:18;0.10;;;0.10;;
2896;SDS011;1458;49.728;9.228;2023-08-12T03:13:45;0.10;;;0.10;;
2896;SDS011;1458;49.728;9.228;2023-08-12T03:16:13;0.10;;;0.10;;
2896;SDS011;1458;49.728;9.228;2023-08-12T03:18:43;0.10;;;0.10;;
2896;SDS011;1458;49.728;9.228;2023-08-12T03:21:11;0.10;;;0.10;;
2896;SDS011;1458;49.728;9.228;2023-08-12T03:23:40;0.10;;;0.10;;
2896;SDS011;1458;49.728;9.228;2023-08-12T03:26:09;0.10;;;0.10;;
2896;SDS011;1458;49.728;9.228;2023-08-12T03:28:37;0.10;;;0.10;;
2896;SDS011;1458;49.728;9.228;2023-08-12T03:31:06;0.10;;;0.10;;
2896;SDS011;1458;49.728;9.228;2023-08-12T03:33:34;0.10;;;0.10;;
2896;SDS011;1458;49.728;9.228;2023-08-12T03:36:03;0.10;;;0.10;;
2896;SDS011;1458;49.728;9.228;2023-08-12T03:38:31;0.10;;;0.10;;
2896;SDS011;1458;49.728;9.228;2023-08-12T03:41:02;0.10;;;0.10;;
2896;SDS011;1458;49.728;9.228;2023-08-12T03:43:32;0.10;;;0.10;;
2896;SDS011;1458;49.728;9.228;2023-08-12T03:46:00;0.10;;;0.10;;
2896;SDS011;1458;49.728;9.228;2023-08-12T03:48:27;0.10;;;0.10;;
2896;SDS011;1458;49.728;9.228;2023-08-12T03:50:56;0.10;;;0.10;;
2896;SDS011;1458;49.728;9.228;2023-08-12T03:53:24;0.10;;;0.10;;
2896;SDS011;1458;49.728;9.228;2023-08-12T03:55:52;0.10;;;0.10;;
2896;SDS011;1458;49.728;9.228;2023-08-12T03:58:21;0.10;;;0.10;;
2896;SDS011;1458;49.728;9.228;2023-08-12T04:00:49;0.10;;;0.10;;
2896;SDS011;1458;49.728;9.228;2023-08-12T04:03:16;0.10;;;0.10;;
2896;SDS011;1458;49.728;9.228;2023-08-12T04:05:47;0.10;;;0.10;;
2896;SDS011;1458;49.728;9.228;2023-08-12T04:08:17;0.10;;;0.10;;
2896;SDS011;1458;49.728;9.228;2023-08-12T04:10:46;0.10;;;0.10;;
2896;SDS011;1458;49.728;9.228;2023-08-12T04:13:14;0.10;;;0.10;;
2896;SDS011;1458;49.728;9.228;2023-08-12T04:15:43;0.10;;;0.10;;
2896;SDS011;1458;49.728;9.228;2023-08-12T04:18:16;0.10;;;0.10;;
2896;SDS011;1458;49.728;9.228;2023-08-12T04:20:44;0.10;;;0.10;;
2896;SDS011;1458;49.728;9.228;2023-08-12T04:23:13;0.10;;;0.10;;
2896;SDS011;1458;49.728;9.228;2023-08-12T04:25:42;0.10;;;0.10;;
2896;SDS011;1458;49.728;9.228;2023-08-12T04:28:11;0.10;;;0.10;;
2896;SDS011;1458;49.728;9.228;2023-08-12T04:30:43;0.10;;;0.10;;
2896;SDS011;1458;49.728;9.228;2023-08-12T04:33:14;0.10;;;0.10;;
2896;SDS011;1458;49.728;9.228;2023-08-12T04:35:42;0.10;;;0.10;;
2896;SDS011;1458;49.728;9.228;2023-08-12T04:38:11;0.10;;;0.10;;
2896;SDS011;1458;49.728;9.228;2023-08-12T04:40:39;0.10;;;0.10;;
2896;SDS011;1458;49.728;9.228;2023-08-12T04:43:08;0.10;;;0.10;;
2896;SDS011;1458;49.728;9.228;2023-08-12T04:45:36;0.10;;;0.10;;
2896;SDS011;1458;49.728;9.228;2023-08-12T04:48:06;0.10;;;0.10;;
2896;SDS011;1458;49.728;9.228;2023-08-12T04:50:36;0.10;;;0.10;;
2896;SDS011;1458;49.728;9.228;2023-08-12T04:53:04;0.10;;;0.10;;
2896;SDS011;1458;49.728;9.228;2023-08-12T04:55:32;0.10;;;0.10;;
2896;SDS011;1458;49.728;9.228;2023-08-12T04:58:00;0.10;;;0.10;;
2896;SDS011;1458;49.728;9.228;2023-08-12T05:00:28;0.10;;;0.10;;
2896;SDS011;1458;49.728;9.228;2023-08-12T05:02:56;0.10;;;0.10;;
2896;SDS011;1458;49.728;9.228;2023-08-12T05:05:28;0.10;;;0.10;;
2896;SDS011;1458;49.728;9.228;2023-08-12T05:07:55;0.10;;;0.10;;
2896;SDS011;1458;49.728;9.228;2023-08-12T05:10:23;0.10;;;0.10;;
2896;SDS011;1458;49.728;9.228;2023-08-12T05:12:50;0.10;;;0.10;;
2896;SDS011;1458;49.728;9.228;2023-08-12T05:15:19;0.10;;;0.10;;
2896;SDS011;1458;49.728;9.228;2023-08-12T05:17:48;0.10;;;0.10;;
2896;SDS011;1458;49.728;9.228;2023-08-12T05:20:18;0.10;;;0.10;;
2896;SDS011;1458;49.728;9.228;2023-08-12T05:22:47;0.10;;;0.10;;
2896;SDS011;1458;49.728;9.228;2023-08-12T05:25:15;0.10;;;0.10;;
2896;SDS011;1458;49.728;9.228;2023-08-12T05:27:42;0.10;;;0.10;;
2896;SDS011;1458;49.728;9.228;2023-08-12T05:30:10;0.10;;;0.10;;
2896;SDS011;1458;49.728;9.228;2023-08-12T05:32:39;0.10;;;0.10;;
2896;SDS011;1458;49.728;9.228;2023-08-12T05:35:06;0.10;;;0.10;;
2896;SDS011;1458;49.728;9.228;2023-08-12T05:37:34;0.10;;;0.10;;
2896;SDS011;1458;49.728;9.228;2023-08-12T05:40:04;0.10;;;0.10;;
2896;SDS011;1458;49.728;9.228;2023-08-12T05:42:33;0.10;;;0.10;;
2896;SDS011;1458;49.728;9.228;2023-08-12T05:45:01;0.10;;;0.10;;
2896;SDS011;1458;49.728;9.228;2023-08-12T05:47:29;0.10;;;0.10;;
2896;SDS011;1458;49.728;9.228;2023-08-12T05:49:57;0.10;;;0.10;;
2896;SDS011;1458;49.728;9.228;2023-08-12T05:52:25;0.10;;;0.10;;
2896;SDS011;1458;49.728;9.228;2023-08-12T05:54:53;0.10;;;0.10;;
2896;SDS011;1458;49.728;9.228;2023-08-12T05:57:21;0.10;;;0.10;;
2896;SDS011;1458;49.728;9.228;2023-08-12T05:59:49;0.10;;;0.10;;
2896;SDS011;1458;49.728;9.228;2023-08-12T06:02:17;0.10;;;0.10;;
2896;SDS011;1458;49.728;9.228;2023-08-12T06:04:44;0.10;;;0.10;;
2896;SDS011;1458;49.728;9.228;2023-08-12T06:07:11;0.10;;;0.10;;
2896;SDS011;1458;49.728;9.228;2023-08-12T06:09:39;0.10;;;0.10;;
2896;SDS011;1458;49.728;9.228;2023-08-12T06:12:06;0.10;;;0.10;;
2896;SDS011;1458;49.728;9.228;2023-08-12T06:14:36;0.10;;;0.10;;
2896;SDS011;1458;49.728;9.228;2023-08-12T06:17:04;0.10;;;0.10;;
2896;SDS011;1458;49.728;9.228;2023-08-12T06:19:32;0.10;;;0.10;;
2896;SDS011;1458;49.728;9.228;2023-08-12T06:22:00;0.10;;;0.10;;
2896;SDS011;1458;49.728;9.228;2023-08-12T06:24:28;0.10;;;0.10;;
2896;SDS011;1458;49.728;9.228;2023-08-12T06:26:56;0.10;;;0.10;;
2896;SDS011;1458;49.728;9.228;2023-08-12T06:29:23;0.10;;;0.10;;
2896;SDS011;1458;49.728;9.228;2023-08-12T06:31:52;0.10;;;0.10;;
2896;SDS011;1458;49.728;9.228;2023-08-12T06:34:20;0.10;;;0.10;;
2896;SDS011;1458;49.728;9.228;2023-08-12T06:36:48;0.10;;;0.10;;
2896;SDS011;1458;49.728;9.228;2023-08-12T06:39:15;0.20;;;0.20;;
2896;SDS011;1458;49.728;9.228;2023-08-12T06:41:43;0.20;;;0.20;;
2896;SDS011;1458;49.728;9.228;2023-08-12T06:44:11;0.20;;;0.20;;
2896;SDS011;1458;49.728;9.228;2023-08-12T06:46:38;0.20;;;0.20;;
2896;SDS011;1458;49.728;9.228;2023-08-12T06:49:07;0.30;;;0.30;;
2896;SDS011;1458;49.728;9.228;2023-08-12T06:51:34;0.20;;;0.20;;
2896;SDS011;1458;49.728;9.228;2023-08-12T06:54:02;0.20;;;0.20;;
2896;SDS011;1458;49.728;9.228;2023-08-12T06:56:30;0.23;;;0.23;;
2896;SDS011;1458;49.728;9.228;2023-08-12T06:58:57;0.30;;;0.30;;
2896;SDS011;1458;49.728;9.228;2023-08-12T07:01:25;0.10;;;0.10;;
2896;SDS011;1458;49.728;9.228;2023-08-12T07:03:52;0.20;;;0.20;;
2896;SDS011;1458;49.728;9.228;2023-08-12T07:06:21;0.20;;;0.20;;
2896;SDS011;1458;49.728;9.228;2023-08-12T07:08:49;0.37;;;0.37;;
2896;SDS011;1458;49.728;9.228;2023-08-12T07:11:16;0.30;;;0.30;;
2896;SDS011;1458;49.728;9.228;2023-08-12T07:13:44;0.30;;;0.30;;
2896;SDS011;1458;49.728;9.228;2023-08-12T07:16:12;0.40;;;0.40;;
2896;SDS011;1458;49.728;9.228;2023-08-12T07:18:39;0.60;;;0.60;;
2896;SDS011;1458;49.728;9.228;2023-08-12T07:21:07;0.60;;;0.60;;
2896;SDS011;1458;49.728;9.228;2023-08-12T07:23:36;1.03;;;1.03;;
2896;SDS011;1458;49.728;9.228;2023-08-12T07:26:03;0.93;;;0.93;;
2896;SDS011;1458;49.728;9.228;2023-08-12T07:28:30;1.03;;;1.03;;
2896;SDS011;1458;49.728;9.228;2023-08-12T07:31:00;0.70;;;0.70;;
2896;SDS011;1458;49.728;9.228;2023-08-12T07:33:28;0.80;;;0.80;;
2896;SDS011;1458;49.728;9.228;2023-08-12T07:35:55;0.70;;;0.70;;
2896;SDS011;1458;49.728;9.228;2023-08-12T07:38:23;0.70;;;0.70;;
2896;SDS011;1458;49.728;9.228;2023-08-12T07:40:51;0.93;;;0.93;;
2896;SDS011;1458;49.728;9.228;2023-08-12T07:43:19;1.10;;;1.10;;
2896;SDS011;1458;49.728;9.228;2023-08-12T07:45:50;0.97;;;0.97;;
2896;SDS011;1458;49.728;9.228;2023-08-12T07:48:18;1.00;;;1.00;;
2896;SDS011;1458;49.728;9.228;2023-08-12T07:50:46;0.93;;;0.93;;
2896;SDS011;1458;49.728;9.228;2023-08-12T07:53:14;1.17;;;1.17;;
2896;SDS011;1458;49.728;9.228;2023-08-12T07:55:42;1.40;;;1.40;;
2896;SDS011;1458;49.728;9.228;2023-08-12T07:58:10;1.67;;;1.67;;
2896;SDS011;1458;49.728;9.228;2023-08-12T08:00:38;1.90;;;1.90;;
2896;SDS011;1458;49.728;9.228;2023-08-12T08:03:06;2.33;;;2.33;;
2896;SDS011;1458;49.728;9.228;2023-08-12T08:05:33;1.40;;;1.40;;
2896;SDS011;1458;49.728;9.228;2023-08-12T08:08:01;1.80;;;1.80;;
2896;SDS011;1458;49.728;9.228;2023-08-12T08:10:29;1.33;;;1.33;;
2896;SDS011;1458;49.728;9.228;2023-08-12T08:12:56;1.20;;;1.20;;
2896;SDS011;1458;49.728;9.228;2023-08-12T08:15:25;0.70;;;0.70;;
2896;SDS011;1458;49.728;9.228;2023-08-12T08:17:53;0.80;;;0.80;;
2896;SDS011;1458;49.728;9.228;2023-08-12T08:20:20;1.10;;;1.10;;
2896;SDS011;1458;49.728;9.228;2023-08-12T08:22:48;1.30;;;1.30;;
2896;SDS011;1458;49.728;9.228;2023-08-12T08:25:16;1.30;;;1.30;;
2896;SDS011;1458;49.728;9.228;2023-08-12T08:27:43;1.43;;;1.43;;
2896;SDS011;1458;49.728;9.228;2023-08-12T08:30:11;1.67;;;1.67;;
2896;SDS011;1458;49.728;9.228;2023-08-12T08:32:40;1.70;;;1.70;;
2896;SDS011;1458;49.728;9.228;2023-08-12T08:35:08;1.67;;;1.67;;
2896;SDS011;1458;49.728;9.228;2023-08-12T08:37:35;1.57;;;1.57;;
2896;SDS011;1458;49.728;9.228;2023-08-12T08:40:03;1.57;;;1.57;;
2896;SDS011;1458;49.728;9.228;2023-08-12T08:42:33;1.70;;;1.70;;
2896;SDS011;1458;49.728;9.228;2023-08-12T08:45:01;2.00;;;2.00;;
2896;SDS011;1458;49.728;9.228;2023-08-12T08:47:31;2.10;;;2.10;;
2896;SDS011;1458;49.728;9.228;2023-08-12T08:50:00;1.93;;;1.93;;
2896;SDS011;1458;49.728;9.228;2023-08-12T08:52:29;2.40;;;2.40;;
2896;SDS011;1458;49.728;9.228;2023-08-12T08:54:59;2.17;;;2.17;;
2896;SDS011;1458;49.728;9.228;2023-08-12T08:57:28;2.40;;;2.40;;
2896;SDS011;1458;49.728;9.228;2023-08-12T08:59:56;2.20;;;2.20;;
2896;SDS011;1458;49.728;9.228;2023-08-12T09:02:23;2.50;;;2.50;;
2896;SDS011;1458;49.728;9.228;2023-08-12T09:04:52;2.60;;;2.60;;
2896;SDS011;1458;49.728;9.228;2023-08-12T09:07:23;2.63;;;2.63;;
2896;SDS011;1458;49.728;9.228;2023-08-12T09:09:51;2.20;;;2.20;;
2896;SDS011;1458;49.728;9.228;2023-08-12T09:12:19;2.90;;;2.90;;
2896;SDS011;1458;49.728;9.228;2023-08-12T09:14:48;3.37;;;3.37;;
2896;SDS011;1458;49.728;9.228;2023-08-12T09:17:15;3.10;;;3.10;;
2896;SDS011;1458;49.728;9.228;2023-08-12T09:19:43;2.80;;;2.80;;
2896;SDS011;1458;49.728;9.228;2023-08-12T09:22:10;3.80;;;3.80;;
2896;SDS011;1458;49.728;9.228;2023-08-12T09:24:40;3.40;;;3.40;;
2896;SDS011;1458;49.728;9.228;2023-08-12T09:27:09;3.60;;;3.60;;
2896;SDS011;1458;49.728;9.228;2023-08-12T09:29:37;3.97;;;3.97;;
2896;SDS011;1458;49.728;9.228;2023-08-12T09:32:09;3.90;;;3.90;;
2896;SDS011;1458;49.728;9.228;2023-08-12T09:34:37;3.87;;;3.87;;
2896;SDS011;1458;49.728;9.228;2023-08-12T09:37:12;3.93;;;3.93;;
2896;SDS011;1458;49.728;9.228;2023-08-12T09:39:41;4.47;;;4.47;;
2896;SDS011;1458;49.728;9.228;2023-08-12T09:42:10;4.03;;;4.03;;
2896;SDS011;1458;49.728;9.228;2023-08-12T09:44:38;4.30;;;4.30;;
2896;SDS011;1458;49.728;9.228;2023-08-12T09:47:06;4.67;;;4.67;;
2896;SDS011;1458;49.728;9.228;2023-08-12T09:49:34;4.47;;;4.47;;
2896;SDS011;1458;49.728;9.228;2023-08-12T09:52:02;4.57;;;4.57;;
2896;SDS011;1458;49.728;9.228;2023-08-12T09:54:32;4.40;;;4.40;;
2896;SDS011;1458;49.728;9.228;2023-08-12T09:57:02;5.20;;;5.20;;
2896;SDS011;1458;49.728;9.228;2023-08-12T09:59:33;5.30;;;5.30;;
2896;SDS011;1458;49.728;9.228;2023-08-12T10:02:02;6.33;;;6.33;;
2896;SDS011;1458;49.728;9.228;2023-08-12T10:04:33;5.33;;;5.33;;
2896;SDS011;1458;49.728;9.228;2023-08-12T10:07:06;5.70;;;5.70;;
2896;SDS011;1458;49.728;9.228;2023-08-12T10:09:38;6.90;;;6.80;;
2896;SDS011;1458;49.728;9.228;2023-08-12T10:12:08;8.10;;;8.00;;
2896;SDS011;1458;49.728;9.228;2023-08-12T10:14:36;7.30;;;7.20;;
2896;SDS011;1458;49.728;9.228;2023-08-12T10:17:04;7.73;;;7.63;;
2896;SDS011;1458;49.728;9.228;2023-08-12T10:19:34;8.00;;;7.90;;
2896;SDS011;1458;49.728;9.228;2023-08-12T10:22:03;7.30;;;7.20;;
2896;SDS011;1458;49.728;9.228;2023-08-12T10:24:30;7.80;;;7.70;;
2896;SDS011;1458;49.728;9.228;2023-08-12T10:27:01;8.27;;;8.17;;
2896;SDS011;1458;49.728;9.228;2023-08-12T10:29:31;8.23;;;8.13;;
2896;SDS011;1458;49.728;9.228;2023-08-12T10:31:58;8.63;;;8.43;;
2896;SDS011;1458;49.728;9.228;2023-08-12T10:34:26;9.33;;;9.13;;
2896;SDS011;1458;49.728;9.228;2023-08-12T10:36:54;9.30;;;9.10;;
2896;SDS011;1458;49.728;9.228;2023-08-12T10:39:24;9.80;;;9.60;;
2896;SDS011;1458;49.728;9.228;2023-08-12T10:41:54;8.97;;;8.77;;
2896;SDS011;1458;49.728;9.228;2023-08-12T10:44:25;8.53;;;8.43;;
2896;SDS011;1458;49.728;9.228;2023-08-12T10:47:07;9.13;;;8.93;;
2896;SDS011;1458;49.728;9.228;2023-08-12T10:49:37;8.80;;;8.60;;
2896;SDS011;1458;49.728;9.228;2023-08-12T10:52:05;8.17;;;8.07;;
2896;SDS011;1458;49.728;9.228;2023-08-12T10:54:53;8.10;;;8.00;;
2896;SDS011;1458;49.728;9.228;2023-08-12T10:57:27;7.90;;;7.80;;
2896;SDS011;1458;49.728;9.228;2023-08-12T11:00:03;8.13;;;8.03;;
2896;SDS011;1458;49.728;9.228;2023-08-12T11:02:34;8.63;;;8.50;;
2896;SDS011;1458;49.728;9.228;2023-08-12T11:05:06;8.80;;;8.60;;
2896;SDS011;1458;49.728;9.228;2023-08-12T11:07:37;9.47;;;9.27;;
2896;SDS011;1458;49.728;9.228;2023-08-12T11:10:10;9.40;;;9.20;;
2896;SDS011;1458;49.728;9.228;2023-08-12T11:12:41;9.70;;;9.50;;
2896;SDS011;1458;49.728;9.228;2023-08-12T11:15:28;9.70;;;9.50;;
2896;SDS011;1458;49.728;9.228;2023-08-12T11:17:59;9.03;;;8.83;;
2896;SDS011;1458;49.728;9.228;2023-08-12T11:20:30;9.00;;;8.80;;
2896;SDS011;1458;49.728;9.228;2023-08-12T11:22:59;8.47;;;8.37;;
2896;SDS011;1458;49.728;9.228;2023-08-12T11:25:27;8.50;;;8.40;;
2896;SDS011;1458;49.728;9.228;2023-08-12T11:27:56;6.67;;;6.57;;
2896;SDS011;1458;49.728;9.228;2023-08-12T11:30:25;3.90;;;3.90;;
2896;SDS011;1458;49.728;9.228;2023-08-12T11:32:53;3.10;;;3.10;;
2896;SDS011;1458;49.728;9.228;2023-08-12T11:35:23;1.63;;;1.63;;
2896;SDS011;1458;49.728;9.228;2023-08-12T11:37:52;1.30;;;1.30;;
2896;SDS011;1458;49.728;9.228;2023-08-12T11:40:23;0.60;;;0.60;;
2896;SDS011;1458;49.728;9.228;2023-08-12T11:42:52;0.47;;;0.47;;
2896;SDS011;1458;49.728;9.228;2023-08-12T11:45:22;0.30;;;0.30;;
2896;SDS011;1458;49.728;9.228;2023-08-12T11:47:52;0.40;;;0.40;;
2896;SDS011;1458;49.728;9.228;2023-08-12T11:50:20;0.20;;;0.20;;
2896;SDS011;1458;49.728;9.228;2023-08-12T11:52:51;0.20;;;0.20;;
2896;SDS011;1458;49.728;9.228;2023-08-12T11:55:19;0.13;;;0.13;;
2896;SDS011;1458;49.728;9.228;2023-08-12T11:57:47;0.10;;;0.10;;
2896;SDS011;1458;49.728;9.228;2023-08-12T12:00:15;0.10;;;0.10;;
2896;SDS011;1458;49.728;9.228;2023-08-12T12:02:45;0.10;;;0.10;;
2896;SDS011;1458;49.728;9.228;2023-08-12T12:05:15;0.10;;;0.10;;
2896;SDS011;1458;49.728;9.228;2023-08-12T12:07:45;0.10;;;0.10;;
2896;SDS011;1458;49.728;9.228;2023-08-12T12:10:12;0.00;;;0.00;;
2896;SDS011;1458;49.728;9.228;2023-08-12T12:12:41;0.20;;;0.20;;
2896;SDS011;1458;49.728;9.228;2023-08-12T12:15:12;0.10;;;0.10;;
2896;SDS011;1458;49.728;9.228;2023-08-12T12:17:41;0.00;;;0.00;;
2896;SDS011;1458;49.728;9.228;2023-08-12T12:20:09;0.00;;;0.00;;
2896;SDS011;1458;49.728;9.228;2023-08-12T12:22:37;0.00;;;0.00;;
2896;SDS011;1458;49.728;9.228;2023-08-12T12:25:07;0.00;;;0.00;;
2896;SDS011;1458;49.728;9.228;2023-08-12T12:27:37;0.00;;;0.00;;
2896;SDS011;1458;49.728;9.228;2023-08-12T12:30:07;0.00;;;0.00;;
2896;SDS011;1458;49.728;9.228;2023-08-12T12:32:35;0.00;;;0.00;;
2896;SDS011;1458;49.728;9.228;2023-08-12T12:35:04;0.00;;;0.00;;
2896;SDS011;1458;49.728;9.228;2023-08-12T12:37:33;0.07;;;0.07;;
2896;SDS011;1458;49.728;9.228;2023-08-12T12:40:01;0.00;;;0.00;;
2896;SDS011;1458;49.728;9.228;2023-08-12T12:42:31;0.00;;;0.00;;
2896;SDS011;1458;49.728;9.228;2023-08-12T12:44:58;0.00;;;0.00;;
2896;SDS011;1458;49.728;9.228;2023-08-12T12:47:26;0.00;;;0.00;;
2896;SDS011;1458;49.728;9.228;2023-08-12T12:49:53;0.00;;;0.00;;
2896;SDS011;1458;49.728;9.228;2023-08-12T12:52:21;0.00;;;0.00;;
2896;SDS011;1458;49.728;9.228;2023-08-12T12:54:48;0.00;;;0.00;;
2896;SDS011;1458;49.728;9.228;2023-08-12T12:57:15;0.00;;;0.00;;
2896;SDS011;1458;49.728;9.228;2023-08-12T12:59:44;0.00;;;0.00;;
2896;SDS011;1458;49.728;9.228;2023-08-12T13:02:12;0.00;;;0.00;;
2896;SDS011;1458;49.728;9.228;2023-08-12T13:04:39;0.00;;;0.00;;
2896;SDS011;1458;49.728;9.228;2023-08-12T13:07:08;0.00;;;0.00;;
2896;SDS011;1458;49.728;9.228;2023-08-12T13:09:35;0.00;;;0.00;;
2896;SDS011;1458;49.728;9.228;2023-08-12T13:12:02;0.00;;;0.00;;
2896;SDS011;1458;49.728;9.228;2023-08-12T13:14:31;0.00;;;0.00;;
2896;SDS011;1458;49.728;9.228;2023-08-12T13:16:59;0.00;;;0.00;;
2896;SDS011;1458;49.728;9.228;2023-08-12T13:19:27;0.00;;;0.00;;
2896;SDS011;1458;49.728;9.228;2023-08-12T13:21:54;0.00;;;0.00;;
2896;SDS011;1458;49.728;9.228;2023-08-12T13:24:22;0.00;;;0.00;;
2896;SDS011;1458;49.728;9.228;2023-08-12T13:26:49;0.00;;;0.00;;
2896;SDS011;1458;49.728;9.228;2023-08-12T13:29:17;0.00;;;0.00;;
2896;SDS011;1458;49.728;9.228;2023-08-12T13:31:45;0.00;;;0.00;;
2896;SDS011;1458;49.728;9.228;2023-08-12T13:34:14;0.00;;;0.00;;
2896;SDS011;1458;49.728;9.228;2023-08-12T13:36:41;0.00;;;0.00;;
2896;SDS011;1458;49.728;9.228;2023-08-12T13:39:09;0.00;;;0.00;;
2896;SDS011;1458;49.728;9.228;2023-08-12T13:41:36;0.00;;;0.00;;
2896;SDS011;1458;49.728;9.228;2023-08-12T13:44:03;0.00;;;0.00;;
2896;SDS011;1458;49.728;9.228;2023-08-12T13:46:31;0.00;;;0.00;;
2896;SDS011;1458;49.728;9.228;2023-08-12T13:48:59;0.00;;;0.00;;
2896;SDS011;1458;49.728;9.228;2023-08-12T13:51:28;0.00;;;0.00;;
2896;SDS011;1458;49.728;9.228;2023-08-12T13:53:56;0.00;;;0.00;;
2896;SDS011;1458;49.728;9.228;2023-08-12T13:56:23;0.00;;;0.00;;
2896;SDS011;1458;49.728;9.228;2023-08-12T13:58:51;0.10;;;0.10;;
2896;SDS011;1458;49.728;9.228;2023-08-12T14:01:18;0.10;;;0.10;;
2896;SDS011;1458;49.728;9.228;2023-08-12T14:03:47;0.00;;;0.00;;
2896;SDS011;1458;49.728;9.228;2023-08-12T14:06:14;0.10;;;0.10;;
2896;SDS011;1458;49.728;9.228;2023-08-12T14:08:43;0.00;;;0.00;;
2896;SDS011;1458;49.728;9.228;2023-08-12T14:11:10;0.00;;;0.00;;
2896;SDS011;1458;49.728;9.228;2023-08-12T14:13:38;0.00;;;0.00;;
2896;SDS011;1458;49.728;9.228;2023-08-12T14:16:05;0.10;;;0.10;;
2896;SDS011;1458;49.728;9.228;2023-08-12T14:18:32;0.00;;;0.00;;
2896;SDS011;1458;49.728;9.228;2023-08-12T14:21:00;0.10;;;0.10;;
2896;SDS011;1458;49.728;9.228;2023-08-12T14:23:27;0.00;;;0.00;;
2896;SDS011;1458;49.728;9.228;2023-08-12T14:25:56;0.00;;;0.00;;
2896;SDS011;1458;49.728;9.228;2023-08-12T14:28:23;0.10;;;0.10;;
2896;SDS011;1458;49.728;9.228;2023-08-12T14:30:51;0.00;;;0.00;;
2896;SDS011;1458;49.728;9.228;2023-08-12T14:33:20;0.00;;;0.00;;
2896;SDS011;1458;49.728;9.228;2023-08-12T14:35:50;0.10;;;0.10;;
2896;SDS011;1458;49.728;9.228;2023-08-12T14:38:19;0.00;;;0.00;;
2896;SDS011;1458;49.728;9.228;2023-08-12T14:40:47;0.00;;;0.00;;
2896;SDS011;1458;49.728;9.228;2023-08-12T14:43:16;0.00;;;0.00;;
2896;SDS011;1458;49.728;9.228;2023-08-12T14:45:44;0.00;;;0.00;;
2896;SDS011;1458;49.728;9.228;2023-08-12T14:48:11;0.00;;;0.00;;
2896;SDS011;1458;49.728;9.228;2023-08-12T14:50:40;0.00;;;0.00;;
2896;SDS011;1458;49.728;9.228;2023-08-12T14:53:08;0.10;;;0.10;;
2896;SDS011;1458;49.728;9.228;2023-08-12T14:55:35;0.00;;;0.00;;
2896;SDS011;1458;49.728;9.228;2023-08-12T14:58:03;0.00;;;0.00;;
2896;SDS011;1458;49.728;9.228;2023-08-12T15:00:32;0.00;;;0.00;;
2896;SDS011;1458;49.728;9.228;2023-08-12T15:02:59;0.00;;;0.00;;
2896;SDS011;1458;49.728;9.228;2023-08-12T15:05:28;0.00;;;0.00;;
2896;SDS011;1458;49.728;9.228;2023-08-12T15:07:55;0.10;;;0.10;;
2896;SDS011;1458;49.728;9.228;2023-08-12T15:10:23;0.10;;;0.10;;
2896;SDS011;1458;49.728;9.228;2023-08-12T15:12:50;0.10;;;0.10;;
2896;SDS011;1458;49.728;9.228;2023-08-12T15:15:18;0.10;;;0.10;;
2896;SDS011;1458;49.728;9.228;2023-08-12T15:17:47;0.00;;;0.00;;
2896;SDS011;1458;49.728;9.228;2023-08-12T15:20:14;0.00;;;0.00;;
2896;SDS011;1458;49.728;9.228;2023-08-12T15:22:42;0.00;;;0.00;;